sensor_id;sensor_type;location;lat;lon;timestamp;P1;durP1;ratioP1;P2;durP2;ratioP2
8050;SDS011;4068;42.158;24.732;2023-12-20T00:01:40;35.17;;;19.27;;
8050;SDS011;4068;42.158;24.732;2023-12-20T00:04:05;35.87;;;18.60;;
8050;SDS011;4068;42.158;24.732;2023-12-20T00:06:31;37.20;;;19.23;;
8050;SDS011;4068;42.158;24.732;2023-12-20T00:08:57;34.63;;;18.73;;
8050;SDS011;4068;42.158;24.732;2023-12-20T00:11:25;35.40;;;17.90;;
8050;SDS011;4068;42.158;24.732;2023-12-20T00:13:50;32.17;;;17.80;;
8050;SDS011;4068;42.158;24.732;2023-12-20T00:16:16;31.07;;;17.20;;
8050;SDS011;4068;42.158;24.732;2023-12-20T00:18:42;33.53;;;17.40;;
8050;SDS011;4068;42.158;24.732;2023-12-20T00:21:07;35.47;;;17.27;;
8050;SDS011;4068;42.158;24.732;2023-12-20T00:23:33;35.30;;;19.33;;
8050;SDS011;4068;42.158;24.732;2023-12-20T00:25:58;33.33;;;19.03;;
8050;SDS011;4068;42.158;24.732;2023-12-20T00:28:24;38.43;;;20.83;;
8050;SDS011;4068;42.158;24.732;2023-12-20T00:30:49;43.13;;;19.67;;
8050;SDS011;4068;42.158;24.732;2023-12-20T00:33:15;45.87;;;22.57;;
8050;SDS011;4068;42.158;24.732;2023-12-20T00:35:40;42.50;;;22.27;;
8050;SDS011;4068;42.158;24.732;2023-12-20T00:38:06;42.07;;;22.67;;
8050;SDS011;4068;42.158;24.732;2023-12-20T00:40:32;39.77;;;20.93;;
8050;SDS011;4068;42.158;24.732;2023-12-20T00:42:58;46.03;;;22.30;;
8050;SDS011;4068;42.158;24.732;2023-12-20T00:45:23;44.13;;;21.23;;
8050;SDS011;4068;42.158;24.732;2023-12-20T00:47:49;38.90;;;21.77;;
8050;SDS011;4068;42.158;24.732;2023-12-20T00:50:14;40.47;;;20.00;;
8050;SDS011;4068;42.158;24.732;2023-12-20T00:52:40;36.93;;;19.83;;
8050;SDS011;4068;42.158;24.732;2023-12-20T00:55:05;33.10;;;17.50;;
8050;SDS011;4068;42.158;24.732;2023-12-20T00:57:31;28.17;;;15.37;;
8050;SDS011;4068;42.158;24.732;2023-12-20T00:59:57;28.23;;;16.50;;
8050;SDS011;4068;42.158;24.732;2023-12-20T01:02:22;33.53;;;16.37;;
8050;SDS011;4068;42.158;24.732;2023-12-20T01:04:48;33.20;;;16.77;;
8050;SDS011;4068;42.158;24.732;2023-12-20T01:07:13;29.83;;;14.17;;
8050;SDS011;4068;42.158;24.732;2023-12-20T01:09:39;32.80;;;15.90;;
8050;SDS011;4068;42.158;24.732;2023-12-20T01:12:04;23.27;;;14.07;;
8050;SDS011;4068;42.158;24.732;2023-12-20T01:14:30;30.17;;;14.50;;
8050;SDS011;4068;42.158;24.732;2023-12-20T01:16:55;24.13;;;13.60;;
8050;SDS011;4068;42.158;24.732;2023-12-20T01:19:21;23.20;;;12.77;;
8050;SDS011;4068;42.158;24.732;2023-12-20T01:21:46;24.20;;;13.40;;
8050;SDS011;4068;42.158;24.732;2023-12-20T01:24:12;25.10;;;13.00;;
8050;SDS011;4068;42.158;24.732;2023-12-20T01:26:37;25.00;;;13.90;;
8050;SDS011;4068;42.158;24.732;2023-12-20T01:29:03;29.97;;;14.97;;
8050;SDS011;4068;42.158;24.732;2023-12-20T01:31:28;26.37;;;15.13;;
8050;SDS011;4068;42.158;24.732;2023-12-20T01:33:54;26.63;;;14.60;;
8050;SDS011;4068;42.158;24.732;2023-12-20T01:36:19;30.07;;;14.00;;
8050;SDS011;4068;42.158;24.732;2023-12-20T01:38:45;27.20;;;13.07;;
8050;SDS011;4068;42.158;24.732;2023-12-20T01:41:10;25.40;;;13.83;;
8050;SDS011;4068;42.158;24.732;2023-12-20T01:43:36;29.63;;;13.47;;
8050;SDS011;4068;42.158;24.732;2023-12-20T01:46:01;29.80;;;14.37;;
8050;SDS011;4068;42.158;24.732;2023-12-20T01:48:28;30.50;;;14.43;;
8050;SDS011;4068;42.158;24.732;2023-12-20T01:50:54;26.80;;;14.57;;
8050;SDS011;4068;42.158;24.732;2023-12-20T01:53:21;27.93;;;14.60;;
8050;SDS011;4068;42.158;24.732;2023-12-20T01:55:49;25.70;;;13.60;;
8050;SDS011;4068;42.158;24.732;2023-12-20T01:58:17;35.67;;;14.87;;
8050;SDS011;4068;42.158;24.732;2023-12-20T02:00:44;26.57;;;14.07;;
8050;SDS011;4068;42.158;24.732;2023-12-20T02:03:09;35.37;;;16.27;;
8050;SDS011;4068;42.158;24.732;2023-12-20T02:05:36;29.87;;;15.10;;
8050;SDS011;4068;42.158;24.732;2023-12-20T02:08:03;23.23;;;12.80;;
8050;SDS011;4068;42.158;24.732;2023-12-20T02:10:29;28.70;;;12.93;;
8050;SDS011;4068;42.158;24.732;2023-12-20T02:12:55;26.50;;;13.20;;
8050;SDS011;4068;42.158;24.732;2023-12-20T02:15:20;30.93;;;14.63;;
8050;SDS011;4068;42.158;24.732;2023-12-20T02:17:46;28.73;;;14.17;;
8050;SDS011;4068;42.158;24.732;2023-12-20T02:20:13;31.97;;;15.17;;
8050;SDS011;4068;42.158;24.732;2023-12-20T02:22:38;27.73;;;15.43;;
8050;SDS011;4068;42.158;24.732;2023-12-20T02:25:04;25.90;;;14.67;;
8050;SDS011;4068;42.158;24.732;2023-12-20T02:27:30;27.40;;;14.83;;
8050;SDS011;4068;42.158;24.732;2023-12-20T02:29:56;32.00;;;15.07;;
8050;SDS011;4068;42.158;24.732;2023-12-20T02:32:21;31.33;;;16.07;;
8050;SDS011;4068;42.158;24.732;2023-12-20T02:34:51;27.77;;;14.63;;
8050;SDS011;4068;42.158;24.732;2023-12-20T02:37:17;30.07;;;13.80;;
8050;SDS011;4068;42.158;24.732;2023-12-20T02:39:42;26.30;;;13.97;;
8050;SDS011;4068;42.158;24.732;2023-12-20T02:42:08;23.87;;;13.97;;
8050;SDS011;4068;42.158;24.732;2023-12-20T02:44:33;27.93;;;14.07;;
8050;SDS011;4068;42.158;24.732;2023-12-20T02:46:59;26.50;;;12.73;;
8050;SDS011;4068;42.158;24.732;2023-12-20T02:49:24;26.17;;;13.20;;
8050;SDS011;4068;42.158;24.732;2023-12-20T02:51:50;25.47;;;13.67;;
8050;SDS011;4068;42.158;24.732;2023-12-20T02:54:15;25.43;;;12.53;;
8050;SDS011;4068;42.158;24.732;2023-12-20T02:56:41;27.77;;;13.90;;
8050;SDS011;4068;42.158;24.732;2023-12-20T02:59:06;28.73;;;13.67;;
8050;SDS011;4068;42.158;24.732;2023-12-20T03:01:33;28.93;;;14.03;;
8050;SDS011;4068;42.158;24.732;2023-12-20T03:04:00;25.97;;;13.07;;
8050;SDS011;4068;42.158;24.732;2023-12-20T03:06:25;26.17;;;13.80;;
8050;SDS011;4068;42.158;24.732;2023-12-20T03:08:51;23.63;;;12.77;;
8050;SDS011;4068;42.158;24.732;2023-12-20T03:11:17;22.50;;;12.67;;
8050;SDS011;4068;42.158;24.732;2023-12-20T03:13:42;24.90;;;13.83;;
8050;SDS011;4068;42.158;24.732;2023-12-20T03:16:11;22.07;;;12.87;;
8050;SDS011;4068;42.158;24.732;2023-12-20T03:18:37;22.13;;;12.53;;
8050;SDS011;4068;42.158;24.732;2023-12-20T03:21:06;23.27;;;12.67;;
8050;SDS011;4068;42.158;24.732;2023-12-20T03:23:31;23.07;;;12.97;;
8050;SDS011;4068;42.158;24.732;2023-12-20T03:26:00;22.17;;;12.33;;
8050;SDS011;4068;42.158;24.732;2023-12-20T03:28:29;23.20;;;12.73;;
8050;SDS011;4068;42.158;24.732;2023-12-20T03:30:54;27.40;;;13.83;;
8050;SDS011;4068;42.158;24.732;2023-12-20T03:33:20;18.83;;;11.57;;
8050;SDS011;4068;42.158;24.732;2023-12-20T03:35:46;24.00;;;11.33;;
8050;SDS011;4068;42.158;24.732;2023-12-20T03:38:11;24.90;;;12.70;;
8050;SDS011;4068;42.158;24.732;2023-12-20T03:40:37;27.50;;;14.17;;
8050;SDS011;4068;42.158;24.732;2023-12-20T03:43:03;27.50;;;13.30;;
8050;SDS011;4068;42.158;24.732;2023-12-20T03:45:28;34.97;;;14.30;;
8050;SDS011;4068;42.158;24.732;2023-12-20T03:47:54;29.10;;;14.40;;
8050;SDS011;4068;42.158;24.732;2023-12-20T03:50:24;27.20;;;13.90;;
8050;SDS011;4068;42.158;24.732;2023-12-20T03:52:51;31.07;;;14.90;;
8050;SDS011;4068;42.158;24.732;2023-12-20T03:55:16;28.37;;;15.20;;
8050;SDS011;4068;42.158;24.732;2023-12-20T03:57:42;23.47;;;13.57;;
8050;SDS011;4068;42.158;24.732;2023-12-20T04:00:07;25.97;;;13.03;;
8050;SDS011;4068;42.158;24.732;2023-12-20T04:02:37;24.43;;;14.53;;
8050;SDS011;4068;42.158;24.732;2023-12-20T04:05:03;26.30;;;13.47;;
8050;SDS011;4068;42.158;24.732;2023-12-20T04:07:29;24.13;;;13.57;;
8050;SDS011;4068;42.158;24.732;2023-12-20T04:09:55;28.97;;;14.23;;
8050;SDS011;4068;42.158;24.732;2023-12-20T04:12:21;26.00;;;14.93;;
8050;SDS011;4068;42.158;24.732;2023-12-20T04:14:46;29.57;;;14.97;;
8050;SDS011;4068;42.158;24.732;2023-12-20T04:17:11;25.37;;;15.13;;
8050;SDS011;4068;42.158;24.732;2023-12-20T04:19:37;33.30;;;15.83;;
8050;SDS011;4068;42.158;24.732;2023-12-20T04:22:02;29.63;;;14.70;;
8050;SDS011;4068;42.158;24.732;2023-12-20T04:24:28;33.43;;;16.87;;
8050;SDS011;4068;42.158;24.732;2023-12-20T04:26:54;27.07;;;15.80;;
8050;SDS011;4068;42.158;24.732;2023-12-20T04:29:19;31.17;;;15.40;;
8050;SDS011;4068;42.158;24.732;2023-12-20T04:31:45;28.83;;;15.17;;
8050;SDS011;4068;42.158;24.732;2023-12-20T04:34:10;29.67;;;16.20;;
8050;SDS011;4068;42.158;24.732;2023-12-20T04:36:35;29.77;;;16.93;;
8050;SDS011;4068;42.158;24.732;2023-12-20T04:39:01;32.17;;;16.70;;
8050;SDS011;4068;42.158;24.732;2023-12-20T04:41:26;37.70;;;18.53;;
8050;SDS011;4068;42.158;24.732;2023-12-20T04:43:52;28.37;;;15.23;;
8050;SDS011;4068;42.158;24.732;2023-12-20T04:46:18;33.30;;;15.90;;
8050;SDS011;4068;42.158;24.732;2023-12-20T04:48:43;30.00;;;16.73;;
8050;SDS011;4068;42.158;24.732;2023-12-20T04:51:09;30.17;;;17.37;;
8050;SDS011;4068;42.158;24.732;2023-12-20T04:53:34;28.80;;;15.40;;
8050;SDS011;4068;42.158;24.732;2023-12-20T04:56:00;29.90;;;16.30;;
8050;SDS011;4068;42.158;24.732;2023-12-20T04:58:26;32.57;;;17.70;;
8050;SDS011;4068;42.158;24.732;2023-12-20T05:00:51;37.87;;;20.97;;
8050;SDS011;4068;42.158;24.732;2023-12-20T05:03:17;38.73;;;21.40;;
8050;SDS011;4068;42.158;24.732;2023-12-20T05:05:42;40.77;;;22.83;;
8050;SDS011;4068;42.158;24.732;2023-12-20T05:08:08;45.80;;;23.73;;
8050;SDS011;4068;42.158;24.732;2023-12-20T05:10:33;64.80;;;27.70;;
8050;SDS011;4068;42.158;24.732;2023-12-20T05:12:59;52.50;;;26.87;;
8050;SDS011;4068;42.158;24.732;2023-12-20T05:15:25;53.93;;;27.97;;
8050;SDS011;4068;42.158;24.732;2023-12-20T05:17:50;63.43;;;31.53;;
8050;SDS011;4068;42.158;24.732;2023-12-20T05:20:16;57.07;;;29.27;;
8050;SDS011;4068;42.158;24.732;2023-12-20T05:22:41;55.73;;;29.40;;
8050;SDS011;4068;42.158;24.732;2023-12-20T05:25:07;59.00;;;31.03;;
8050;SDS011;4068;42.158;24.732;2023-12-20T05:27:32;52.50;;;27.87;;
8050;SDS011;4068;42.158;24.732;2023-12-20T05:29:59;46.27;;;26.83;;
8050;SDS011;4068;42.158;24.732;2023-12-20T05:32:24;56.00;;;29.70;;
8050;SDS011;4068;42.158;24.732;2023-12-20T05:34:50;54.13;;;29.40;;
8050;SDS011;4068;42.158;24.732;2023-12-20T05:37:15;50.73;;;26.30;;
8050;SDS011;4068;42.158;24.732;2023-12-20T05:39:41;50.03;;;26.03;;
8050;SDS011;4068;42.158;24.732;2023-12-20T05:42:06;54.73;;;28.50;;
8050;SDS011;4068;42.158;24.732;2023-12-20T05:44:32;45.93;;;26.20;;
8050;SDS011;4068;42.158;24.732;2023-12-20T05:46:57;88.53;;;41.97;;
8050;SDS011;4068;42.158;24.732;2023-12-20T05:49:23;78.70;;;39.60;;
8050;SDS011;4068;42.158;24.732;2023-12-20T05:51:48;88.63;;;41.03;;
8050;SDS011;4068;42.158;24.732;2023-12-20T05:54:15;94.33;;;46.53;;
8050;SDS011;4068;42.158;24.732;2023-12-20T05:56:41;77.53;;;38.00;;
8050;SDS011;4068;42.158;24.732;2023-12-20T05:59:06;66.97;;;31.53;;
8050;SDS011;4068;42.158;24.732;2023-12-20T06:01:32;66.70;;;34.33;;
8050;SDS011;4068;42.158;24.732;2023-12-20T06:03:57;51.37;;;27.70;;
8050;SDS011;4068;42.158;24.732;2023-12-20T06:06:23;72.00;;;34.97;;
8050;SDS011;4068;42.158;24.732;2023-12-20T06:08:49;64.13;;;35.80;;
8050;SDS011;4068;42.158;24.732;2023-12-20T06:11:14;71.17;;;34.83;;
8050;SDS011;4068;42.158;24.732;2023-12-20T06:13:40;53.97;;;29.30;;
8050;SDS011;4068;42.158;24.732;2023-12-20T06:16:05;42.07;;;22.00;;
8050;SDS011;4068;42.158;24.732;2023-12-20T06:18:32;45.97;;;22.63;;
8050;SDS011;4068;42.158;24.732;2023-12-20T06:20:57;47.80;;;25.53;;
8050;SDS011;4068;42.158;24.732;2023-12-20T06:23:23;37.13;;;19.57;;
8050;SDS011;4068;42.158;24.732;2023-12-20T06:25:48;38.10;;;20.63;;
8050;SDS011;4068;42.158;24.732;2023-12-20T06:28:14;41.97;;;22.03;;
8050;SDS011;4068;42.158;24.732;2023-12-20T06:30:40;41.93;;;22.03;;
8050;SDS011;4068;42.158;24.732;2023-12-20T06:33:05;40.40;;;20.07;;
8050;SDS011;4068;42.158;24.732;2023-12-20T06:35:32;45.93;;;19.90;;
8050;SDS011;4068;42.158;24.732;2023-12-20T06:37:57;35.97;;;19.30;;
8050;SDS011;4068;42.158;24.732;2023-12-20T06:40:23;38.30;;;19.83;;
8050;SDS011;4068;42.158;24.732;2023-12-20T06:42:49;40.53;;;19.57;;
8050;SDS011;4068;42.158;24.732;2023-12-20T06:45:14;39.47;;;18.90;;
8050;SDS011;4068;42.158;24.732;2023-12-20T06:47:40;33.77;;;19.60;;
8050;SDS011;4068;42.158;24.732;2023-12-20T06:50:05;33.37;;;18.77;;
8050;SDS011;4068;42.158;24.732;2023-12-20T06:52:33;38.90;;;20.83;;
8050;SDS011;4068;42.158;24.732;2023-12-20T06:54:59;36.20;;;19.67;;
8050;SDS011;4068;42.158;24.732;2023-12-20T06:57:24;33.57;;;18.87;;
8050;SDS011;4068;42.158;24.732;2023-12-20T06:59:51;31.73;;;18.23;;
8050;SDS011;4068;42.158;24.732;2023-12-20T07:02:17;28.00;;;16.17;;
8050;SDS011;4068;42.158;24.732;2023-12-20T07:04:42;30.50;;;16.97;;
8050;SDS011;4068;42.158;24.732;2023-12-20T07:07:08;31.90;;;17.10;;
8050;SDS011;4068;42.158;24.732;2023-12-20T07:09:34;36.90;;;21.50;;
8050;SDS011;4068;42.158;24.732;2023-12-20T07:11:59;41.40;;;20.97;;
8050;SDS011;4068;42.158;24.732;2023-12-20T07:14:25;38.40;;;21.13;;
8050;SDS011;4068;42.158;24.732;2023-12-20T07:16:51;41.60;;;21.87;;
8050;SDS011;4068;42.158;24.732;2023-12-20T07:19:16;36.93;;;21.47;;
8050;SDS011;4068;42.158;24.732;2023-12-20T07:21:42;33.37;;;18.30;;
8050;SDS011;4068;42.158;24.732;2023-12-20T07:24:08;28.53;;;16.83;;
8050;SDS011;4068;42.158;24.732;2023-12-20T07:26:33;34.40;;;17.97;;
8050;SDS011;4068;42.158;24.732;2023-12-20T07:29:00;28.67;;;15.10;;
8050;SDS011;4068;42.158;24.732;2023-12-20T07:31:25;26.40;;;15.87;;
8050;SDS011;4068;42.158;24.732;2023-12-20T07:33:51;25.70;;;14.60;;
8050;SDS011;4068;42.158;24.732;2023-12-20T07:36:16;27.10;;;15.57;;
8050;SDS011;4068;42.158;24.732;2023-12-20T07:38:42;28.33;;;16.17;;
8050;SDS011;4068;42.158;24.732;2023-12-20T07:41:11;22.57;;;13.53;;
8050;SDS011;4068;42.158;24.732;2023-12-20T07:43:37;26.10;;;14.97;;
8050;SDS011;4068;42.158;24.732;2023-12-20T07:46:06;24.47;;;14.87;;
8050;SDS011;4068;42.158;24.732;2023-12-20T07:48:34;26.13;;;15.23;;
8050;SDS011;4068;42.158;24.732;2023-12-20T07:51:00;35.13;;;17.50;;
8050;SDS011;4068;42.158;24.732;2023-12-20T07:53:26;26.97;;;15.77;;
8050;SDS011;4068;42.158;24.732;2023-12-20T07:55:52;23.20;;;14.30;;
8050;SDS011;4068;42.158;24.732;2023-12-20T07:58:18;25.20;;;13.43;;
8050;SDS011;4068;42.158;24.732;2023-12-20T08:00:43;25.63;;;14.23;;
8050;SDS011;4068;42.158;24.732;2023-12-20T08:03:09;30.80;;;14.10;;
8050;SDS011;4068;42.158;24.732;2023-12-20T08:05:34;24.70;;;13.17;;
8050;SDS011;4068;42.158;24.732;2023-12-20T08:08:00;21.93;;;13.47;;
8050;SDS011;4068;42.158;24.732;2023-12-20T08:10:25;22.87;;;13.83;;
8050;SDS011;4068;42.158;24.732;2023-12-20T08:12:52;21.53;;;13.33;;
8050;SDS011;4068;42.158;24.732;2023-12-20T08:15:17;22.53;;;13.37;;
8050;SDS011;4068;42.158;24.732;2023-12-20T08:17:43;23.83;;;14.33;;
8050;SDS011;4068;42.158;24.732;2023-12-20T08:20:08;27.50;;;14.87;;
8050;SDS011;4068;42.158;24.732;2023-12-20T08:22:34;26.00;;;13.97;;
8050;SDS011;4068;42.158;24.732;2023-12-20T08:24:59;22.83;;;13.73;;
8050;SDS011;4068;42.158;24.732;2023-12-20T08:27:25;25.33;;;14.30;;
8050;SDS011;4068;42.158;24.732;2023-12-20T08:29:51;24.87;;;14.13;;
8050;SDS011;4068;42.158;24.732;2023-12-20T08:32:16;21.63;;;12.67;;
8050;SDS011;4068;42.158;24.732;2023-12-20T08:34:42;34.40;;;21.40;;
8050;SDS011;4068;42.158;24.732;2023-12-20T08:37:07;24.77;;;15.47;;
8050;SDS011;4068;42.158;24.732;2023-12-20T08:39:32;23.00;;;13.37;;
8050;SDS011;4068;42.158;24.732;2023-12-20T08:41:58;23.17;;;13.90;;
8050;SDS011;4068;42.158;24.732;2023-12-20T08:44:24;21.33;;;13.27;;
8050;SDS011;4068;42.158;24.732;2023-12-20T08:46:50;20.30;;;12.40;;
8050;SDS011;4068;42.158;24.732;2023-12-20T08:49:15;21.07;;;12.80;;
8050;SDS011;4068;42.158;24.732;2023-12-20T08:51:41;21.17;;;12.23;;
8050;SDS011;4068;42.158;24.732;2023-12-20T08:54:07;20.30;;;12.30;;
8050;SDS011;4068;42.158;24.732;2023-12-20T08:56:35;19.33;;;11.67;;
8050;SDS011;4068;42.158;24.732;2023-12-20T08:59:01;27.60;;;13.53;;
8050;SDS011;4068;42.158;24.732;2023-12-20T09:01:26;24.07;;;13.33;;
8050;SDS011;4068;42.158;24.732;2023-12-20T09:03:52;20.70;;;12.90;;
8050;SDS011;4068;42.158;24.732;2023-12-20T09:06:17;20.33;;;12.43;;
8050;SDS011;4068;42.158;24.732;2023-12-20T09:08:42;27.00;;;16.67;;
8050;SDS011;4068;42.158;24.732;2023-12-20T09:11:08;25.30;;;14.47;;
8050;SDS011;4068;42.158;24.732;2023-12-20T09:13:33;24.70;;;14.33;;
8050;SDS011;4068;42.158;24.732;2023-12-20T09:15:59;26.13;;;13.63;;
8050;SDS011;4068;42.158;24.732;2023-12-20T09:18:24;23.47;;;14.53;;
8050;SDS011;4068;42.158;24.732;2023-12-20T09:20:50;25.17;;;13.18;;
8050;SDS011;4068;42.158;24.732;2023-12-20T09:23:16;18.92;;;12.43;;
8050;SDS011;4068;42.158;24.732;2023-12-20T09:25:42;21.85;;;11.80;;
8050;SDS011;4068;42.158;24.732;2023-12-20T09:28:08;27.70;;;13.35;;
8050;SDS011;4068;42.158;24.732;2023-12-20T09:30:33;27.35;;;14.63;;
8050;SDS011;4068;42.158;24.732;2023-12-20T09:33:00;20.92;;;13.20;;
8050;SDS011;4068;42.158;24.732;2023-12-20T09:35:25;18.00;;;12.35;;
8050;SDS011;4068;42.158;24.732;2023-12-20T09:37:51;19.75;;;12.38;;
8050;SDS011;4068;42.158;24.732;2023-12-20T09:40:19;28.38;;;13.40;;
8050;SDS011;4068;42.158;24.732;2023-12-20T09:42:51;23.85;;;13.20;;
8050;SDS011;4068;42.158;24.732;2023-12-20T09:45:22;24.90;;;13.15;;
8050;SDS011;4068;42.158;24.732;2023-12-20T09:47:49;20.20;;;13.07;;
8050;SDS011;4068;42.158;24.732;2023-12-20T09:50:17;20.83;;;14.10;;
8050;SDS011;4068;42.158;24.732;2023-12-20T09:52:44;24.35;;;13.35;;
8050;SDS011;4068;42.158;24.732;2023-12-20T09:55:13;21.23;;;13.13;;
8050;SDS011;4068;42.158;24.732;2023-12-20T09:57:39;22.42;;;13.15;;
8050;SDS011;4068;42.158;24.732;2023-12-20T10:00:05;25.42;;;14.02;;
8050;SDS011;4068;42.158;24.732;2023-12-20T10:02:31;27.23;;;13.43;;
8050;SDS011;4068;42.158;24.732;2023-12-20T10:04:59;19.98;;;12.63;;
8050;SDS011;4068;42.158;24.732;2023-12-20T10:07:26;19.42;;;13.13;;
8050;SDS011;4068;42.158;24.732;2023-12-20T10:09:52;19.17;;;11.95;;
8050;SDS011;4068;42.158;24.732;2023-12-20T10:12:20;19.83;;;12.10;;
8050;SDS011;4068;42.158;24.732;2023-12-20T10:14:46;19.90;;;11.85;;
8050;SDS011;4068;42.158;24.732;2023-12-20T10:17:11;21.83;;;12.43;;
8050;SDS011;4068;42.158;24.732;2023-12-20T10:19:37;28.63;;;12.18;;
8050;SDS011;4068;42.158;24.732;2023-12-20T10:22:06;20.95;;;12.10;;
8050;SDS011;4068;42.158;24.732;2023-12-20T10:24:31;20.27;;;11.98;;
8050;SDS011;4068;42.158;24.732;2023-12-20T10:27:03;20.73;;;11.40;;
8050;SDS011;4068;42.158;24.732;2023-12-20T10:29:33;22.83;;;13.02;;
8050;SDS011;4068;42.158;24.732;2023-12-20T10:32:08;33.78;;;13.48;;
8050;SDS011;4068;42.158;24.732;2023-12-20T10:34:53;21.40;;;13.63;;
8050;SDS011;4068;42.158;24.732;2023-12-20T10:37:19;21.52;;;12.88;;
8050;SDS011;4068;42.158;24.732;2023-12-20T10:39:51;21.83;;;13.30;;
8050;SDS011;4068;42.158;24.732;2023-12-20T10:42:21;23.23;;;13.88;;
8050;SDS011;4068;42.158;24.732;2023-12-20T10:44:47;23.85;;;13.65;;
8050;SDS011;4068;42.158;24.732;2023-12-20T10:47:14;24.83;;;14.20;;
8050;SDS011;4068;42.158;24.732;2023-12-20T10:49:40;22.23;;;13.38;;
8050;SDS011;4068;42.158;24.732;2023-12-20T10:52:07;20.17;;;13.52;;
8050;SDS011;4068;42.158;24.732;2023-12-20T10:54:34;19.65;;;12.48;;
8050;SDS011;4068;42.158;24.732;2023-12-20T10:56:59;22.90;;;12.50;;
8050;SDS011;4068;42.158;24.732;2023-12-20T10:59:25;23.02;;;12.50;;
8050;SDS011;4068;42.158;24.732;2023-12-20T11:01:54;24.55;;;14.25;;
8050;SDS011;4068;42.158;24.732;2023-12-20T11:04:26;24.55;;;14.00;;
8050;SDS011;4068;42.158;24.732;2023-12-20T11:07:01;29.55;;;14.73;;
8050;SDS011;4068;42.158;24.732;2023-12-20T11:09:46;22.25;;;13.27;;
8050;SDS011;4068;42.158;24.732;2023-12-20T11:12:28;28.70;;;13.75;;
8050;SDS011;4068;42.158;24.732;2023-12-20T11:14:55;24.98;;;13.23;;
8050;SDS011;4068;42.158;24.732;2023-12-20T11:17:22;25.13;;;12.07;;
8050;SDS011;4068;42.158;24.732;2023-12-20T11:22:20;20.58;;;12.32;;
8050;SDS011;4068;42.158;24.732;2023-12-20T11:24:46;33.53;;;14.73;;
8050;SDS011;4068;42.158;24.732;2023-12-20T11:27:13;28.35;;;16.58;;
8050;SDS011;4068;42.158;24.732;2023-12-20T11:29:39;41.50;;;15.98;;
8050;SDS011;4068;42.158;24.732;2023-12-20T11:32:51;47.05;;;16.15;;
8050;SDS011;4068;42.158;24.732;2023-12-20T11:34:58;38.30;;;14.90;;
8050;SDS011;4068;42.158;24.732;2023-12-20T11:37:31;31.13;;;13.55;;
8050;SDS011;4068;42.158;24.732;2023-12-20T11:40:01;26.08;;;12.57;;
8050;SDS011;4068;42.158;24.732;2023-12-20T11:42:32;23.65;;;11.77;;
8050;SDS011;4068;42.158;24.732;2023-12-20T11:44:59;32.38;;;13.48;;
8050;SDS011;4068;42.158;24.732;2023-12-20T11:47:28;37.05;;;13.80;;
8050;SDS011;4068;42.158;24.732;2023-12-20T11:49:54;27.38;;;13.38;;
8050;SDS011;4068;42.158;24.732;2023-12-20T11:52:21;26.27;;;13.55;;
8050;SDS011;4068;42.158;24.732;2023-12-20T11:54:46;26.02;;;13.68;;
8050;SDS011;4068;42.158;24.732;2023-12-20T11:57:13;19.70;;;12.32;;
8050;SDS011;4068;42.158;24.732;2023-12-20T11:59:40;28.70;;;12.73;;
8050;SDS011;4068;42.158;24.732;2023-12-20T12:02:05;24.95;;;13.15;;
8050;SDS011;4068;42.158;24.732;2023-12-20T12:04:31;19.38;;;12.68;;
8050;SDS011;4068;42.158;24.732;2023-12-20T12:06:56;22.85;;;12.40;;
8050;SDS011;4068;42.158;24.732;2023-12-20T12:09:22;22.08;;;12.10;;
8050;SDS011;4068;42.158;24.732;2023-12-20T12:11:47;28.77;;;13.38;;
8050;SDS011;4068;42.158;24.732;2023-12-20T12:14:13;28.40;;;13.82;;
8050;SDS011;4068;42.158;24.732;2023-12-20T12:16:39;24.00;;;12.77;;
8050;SDS011;4068;42.158;24.732;2023-12-20T12:19:06;22.85;;;14.27;;
8050;SDS011;4068;42.158;24.732;2023-12-20T12:21:32;35.97;;;14.27;;
8050;SDS011;4068;42.158;24.732;2023-12-20T12:24:07;30.13;;;14.30;;
8050;SDS011;4068;42.158;24.732;2023-12-20T12:26:33;24.48;;;13.82;;
8050;SDS011;4068;42.158;24.732;2023-12-20T12:28:58;25.88;;;13.82;;
8050;SDS011;4068;42.158;24.732;2023-12-20T12:31:24;36.03;;;16.38;;
8050;SDS011;4068;42.158;24.732;2023-12-20T12:33:51;29.80;;;14.82;;
8050;SDS011;4068;42.158;24.732;2023-12-20T12:36:17;26.85;;;15.15;;
8050;SDS011;4068;42.158;24.732;2023-12-20T12:38:43;38.60;;;16.00;;
8050;SDS011;4068;42.158;24.732;2023-12-20T12:41:09;42.50;;;17.25;;
8050;SDS011;4068;42.158;24.732;2023-12-20T12:43:35;33.20;;;16.77;;
8050;SDS011;4068;42.158;24.732;2023-12-20T12:46:01;32.60;;;15.15;;
8050;SDS011;4068;42.158;24.732;2023-12-20T12:48:26;32.20;;;16.52;;
8050;SDS011;4068;42.158;24.732;2023-12-20T12:50:53;48.53;;;18.40;;
8050;SDS011;4068;42.158;24.732;2023-12-20T12:53:19;32.55;;;17.20;;
8050;SDS011;4068;42.158;24.732;2023-12-20T12:55:45;37.17;;;19.08;;
8050;SDS011;4068;42.158;24.732;2023-12-20T12:58:11;44.92;;;20.10;;
8050;SDS011;4068;42.158;24.732;2023-12-20T13:00:37;49.28;;;22.90;;
8050;SDS011;4068;42.158;24.732;2023-12-20T13:03:02;54.75;;;23.77;;
8050;SDS011;4068;42.158;24.732;2023-12-20T13:05:29;44.42;;;23.60;;
8050;SDS011;4068;42.158;24.732;2023-12-20T13:07:55;43.47;;;21.80;;
8050;SDS011;4068;42.158;24.732;2023-12-20T13:10:21;49.40;;;24.48;;
8050;SDS011;4068;42.158;24.732;2023-12-20T13:12:46;47.33;;;24.10;;
8050;SDS011;4068;42.158;24.732;2023-12-20T13:15:12;40.67;;;24.90;;
8050;SDS011;4068;42.158;24.732;2023-12-20T13:17:37;45.22;;;23.67;;
8050;SDS011;4068;42.158;24.732;2023-12-20T13:20:03;42.08;;;24.33;;
8050;SDS011;4068;42.158;24.732;2023-12-20T13:22:29;41.58;;;24.13;;
8050;SDS011;4068;42.158;24.732;2023-12-20T13:24:54;46.17;;;25.17;;
8050;SDS011;4068;42.158;24.732;2023-12-20T13:27:20;42.55;;;25.45;;
8050;SDS011;4068;42.158;24.732;2023-12-20T13:29:45;54.10;;;25.98;;
8050;SDS011;4068;42.158;24.732;2023-12-20T13:32:11;50.70;;;25.35;;
8050;SDS011;4068;42.158;24.732;2023-12-20T13:34:36;47.03;;;24.38;;
8050;SDS011;4068;42.158;24.732;2023-12-20T13:37:02;45.65;;;25.40;;
8050;SDS011;4068;42.158;24.732;2023-12-20T13:39:28;46.92;;;24.35;;
8050;SDS011;4068;42.158;24.732;2023-12-20T13:41:53;40.58;;;23.73;;
8050;SDS011;4068;42.158;24.732;2023-12-20T13:44:19;44.80;;;23.95;;
8050;SDS011;4068;42.158;24.732;2023-12-20T13:46:44;47.13;;;23.35;;
8050;SDS011;4068;42.158;24.732;2023-12-20T13:49:11;45.22;;;23.23;;
8050;SDS011;4068;42.158;24.732;2023-12-20T13:51:37;48.35;;;24.75;;
8050;SDS011;4068;42.158;24.732;2023-12-20T13:54:03;45.47;;;23.35;;
8050;SDS011;4068;42.158;24.732;2023-12-20T13:56:29;51.88;;;23.30;;
8050;SDS011;4068;42.158;24.732;2023-12-20T13:58:54;50.10;;;23.15;;
8050;SDS011;4068;42.158;24.732;2023-12-20T14:01:20;50.75;;;23.48;;
8050;SDS011;4068;42.158;24.732;2023-12-20T14:03:45;43.95;;;22.80;;
8050;SDS011;4068;42.158;24.732;2023-12-20T14:06:11;51.88;;;23.42;;
8050;SDS011;4068;42.158;24.732;2023-12-20T14:08:37;48.10;;;23.27;;
8050;SDS011;4068;42.158;24.732;2023-12-20T14:11:02;50.95;;;23.48;;
8050;SDS011;4068;42.158;24.732;2023-12-20T14:13:28;50.30;;;23.90;;
8050;SDS011;4068;42.158;24.732;2023-12-20T14:15:53;44.60;;;22.60;;
8050;SDS011;4068;42.158;24.732;2023-12-20T14:18:19;54.00;;;23.70;;
8050;SDS011;4068;42.158;24.732;2023-12-20T14:20:45;46.95;;;22.17;;
8050;SDS011;4068;42.158;24.732;2023-12-20T14:23:12;52.08;;;22.70;;
8050;SDS011;4068;42.158;24.732;2023-12-20T14:25:40;43.08;;;25.50;;
8050;SDS011;4068;42.158;24.732;2023-12-20T14:28:06;40.97;;;22.48;;
8050;SDS011;4068;42.158;24.732;2023-12-20T14:30:32;44.28;;;24.20;;